sensor_id;sensor_type;location;lat;lon;timestamp;temperature;humidity
18577;DHT22;9418;52.694;13.294;2024-01-06T00:00:59;0.70;28.70
18577;DHT22;9418;52.694;13.294;2024-01-06T00:03:26;0.80;26.90
18577;DHT22;9418;52.694;13.294;2024-01-06T00:05:53;0.80;27.70
18577;DHT22;9418;52.694;13.294;2024-01-06T00:08:20;0.70;28.00
18577;DHT22;9418;52.694;13.294;2024-01-06T00:10:46;0.80;27.60
18577;DHT22;9418;52.694;13.294;2024-01-06T00:13:13;0.70;34.40
18577;DHT22;9418;52.694;13.294;2024-01-06T00:15:39;0.80;28.80
18577;DHT22;9418;52.694;13.294;2024-01-06T00:18:06;0.80;27.40
18577;DHT22;9418;52.694;13.294;2024-01-06T00:20:34;0.80;31.40
18577;DHT22;9418;52.694;13.294;2024-01-06T00:23:00;0.80;28.90
18577;DHT22;9418;52.694;13.294;2024-01-06T00:25:27;0.80;29.10
18577;DHT22;9418;52.694;13.294;2024-01-06T00:27:53;0.70;33.60
18577;DHT22;9418;52.694;13.294;2024-01-06T00:30:20;0.70;29.60
18577;DHT22;9418;52.694;13.294;2024-01-06T00:32:47;0.70;31.40
18577;DHT22;9418;52.694;13.294;2024-01-06T00:35:13;0.60;35.20
18577;DHT22;9418;52.694;13.294;2024-01-06T00:37:41;0.70;30.10
18577;DHT22;9418;52.694;13.294;2024-01-06T00:40:08;0.70;26.70
18577;DHT22;9418;52.694;13.294;2024-01-06T00:42:35;0.80;26.80
18577;DHT22;9418;52.694;13.294;2024-01-06T00:45:01;0.80;31.90
18577;DHT22;9418;52.694;13.294;2024-01-06T00:47:29;0.70;31.20
18577;DHT22;9418;52.694;13.294;2024-01-06T00:49:56;0.70;37.70
18577;DHT22;9418;52.694;13.294;2024-01-06T00:52:22;0.70;31.40
18577;DHT22;9418;52.694;13.294;2024-01-06T00:54:50;0.70;32.50
18577;DHT22;9418;52.694;13.294;2024-01-06T00:57:17;0.80;31.10
18577;DHT22;9418;52.694;13.294;2024-01-06T00:59:49;0.70;31.10
18577;DHT22;9418;52.694;13.294;2024-01-06T01:02:15;0.80;30.10
18577;DHT22;9418;52.694;13.294;2024-01-06T01:04:42;0.70;33.00
18577;DHT22;9418;52.694;13.294;2024-01-06T01:07:09;0.80;30.40
18577;DHT22;9418;52.694;13.294;2024-01-06T01:09:35;0.80;30.90
18577;DHT22;9418;52.694;13.294;2024-01-06T01:12:04;0.80;31.60
18577;DHT22;9418;52.694;13.294;2024-01-06T01:14:30;0.80;31.30
18577;DHT22;9418;52.694;13.294;2024-01-06T01:16:57;0.80;31.50
18577;DHT22;9418;52.694;13.294;2024-01-06T01:19:23;0.80;30.80
18577;DHT22;9418;52.694;13.294;2024-01-06T01:21:50;0.80;31.50
18577;DHT22;9418;52.694;13.294;2024-01-06T01:24:20;0.80;36.90
18577;DHT22;9418;52.694;13.294;2024-01-06T01:26:47;0.70;45.50
18577;DHT22;9418;52.694;13.294;2024-01-06T01:29:15;0.70;37.40
18577;DHT22;9418;52.694;13.294;2024-01-06T01:31:41;0.70;33.30
18577;DHT22;9418;52.694;13.294;2024-01-06T01:34:08;0.70;32.70
18577;DHT22;9418;52.694;13.294;2024-01-06T01:36:35;0.70;31.10
18577;DHT22;9418;52.694;13.294;2024-01-06T01:39:01;0.80;31.10
18577;DHT22;9418;52.694;13.294;2024-01-06T01:41:28;0.80;31.80
18577;DHT22;9418;52.694;13.294;2024-01-06T01:43:54;0.70;36.40
18577;DHT22;9418;52.694;13.294;2024-01-06T01:46:26;0.80;33.00
18577;DHT22;9418;52.694;13.294;2024-01-06T01:48:52;0.70;36.40
18577;DHT22;9418;52.694;13.294;2024-01-06T01:51:20;0.70;35.00
18577;DHT22;9418;52.694;13.294;2024-01-06T01:53:47;0.60;39.90
18577;DHT22;9418;52.694;13.294;2024-01-06T01:56:14;0.70;34.80
18577;DHT22;9418;52.694;13.294;2024-01-06T01:58:41;0.70;32.80
18577;DHT22;9418;52.694;13.294;2024-01-06T02:01:08;0.70;41.60
18577;DHT22;9418;52.694;13.294;2024-01-06T02:03:36;0.70;36.80
18577;DHT22;9418;52.694;13.294;2024-01-06T02:06:03;0.70;34.20
18577;DHT22;9418;52.694;13.294;2024-01-06T02:08:30;0.70;37.40
18577;DHT22;9418;52.694;13.294;2024-01-06T02:10:56;0.70;34.40
18577;DHT22;9418;52.694;13.294;2024-01-06T02:13:23;0.70;36.20
18577;DHT22;9418;52.694;13.294;2024-01-06T02:15:50;0.60;43.00
18577;DHT22;9418;52.694;13.294;2024-01-06T02:18:18;0.70;35.90
18577;DHT22;9418;52.694;13.294;2024-01-06T02:20:46;0.70;42.70
18577;DHT22;9418;52.694;13.294;2024-01-06T02:23:16;0.70;36.80
18577;DHT22;9418;52.694;13.294;2024-01-06T02:25:42;0.70;36.30
18577;DHT22;9418;52.694;13.294;2024-01-06T02:28:09;0.70;37.90
18577;DHT22;9418;52.694;13.294;2024-01-06T02:30:35;0.70;36.30
18577;DHT22;9418;52.694;13.294;2024-01-06T02:33:02;0.70;35.10
18577;DHT22;9418;52.694;13.294;2024-01-06T02:35:29;0.70;35.30
18577;DHT22;9418;52.694;13.294;2024-01-06T02:37:55;0.70;35.00
18577;DHT22;9418;52.694;13.294;2024-01-06T02:40:23;0.70;35.20
18577;DHT22;9418;52.694;13.294;2024-01-06T02:42:50;0.60;39.20
18577;DHT22;9418;52.694;13.294;2024-01-06T02:45:16;0.70;35.50
18577;DHT22;9418;52.694;13.294;2024-01-06T02:47:43;0.70;34.50
18577;DHT22;9418;52.694;13.294;2024-01-06T02:50:09;0.80;30.30
18577;DHT22;9418;52.694;13.294;2024-01-06T02:52:36;0.80;35.50
18577;DHT22;9418;52.694;13.294;2024-01-06T02:55:03;0.80;37.70
18577;DHT22;9418;52.694;13.294;2024-01-06T02:57:31;0.80;37.50
18577;DHT22;9418;52.694;13.294;2024-01-06T02:59:58;0.80;39.60
18577;DHT22;9418;52.694;13.294;2024-01-06T03:02:24;0.80;40.40
18577;DHT22;9418;52.694;13.294;2024-01-06T03:04:51;0.80;40.70
18577;DHT22;9418;52.694;13.294;2024-01-06T03:07:18;0.80;38.70
18577;DHT22;9418;52.694;13.294;2024-01-06T03:09:44;0.80;43.20
18577;DHT22;9418;52.694;13.294;2024-01-06T03:12:11;0.80;44.80
18577;DHT22;9418;52.694;13.294;2024-01-06T03:14:39;0.80;42.80
18577;DHT22;9418;52.694;13.294;2024-01-06T03:17:05;0.70;45.30
18577;DHT22;9418;52.694;13.294;2024-01-06T03:19:32;0.60;51.20
18577;DHT22;9418;52.694;13.294;2024-01-06T03:21:58;0.60;47.90
18577;DHT22;9418;52.694;13.294;2024-01-06T03:24:26;0.60;42.40
18577;DHT22;9418;52.694;13.294;2024-01-06T03:26:53;0.70;38.80
18577;DHT22;9418;52.694;13.294;2024-01-06T03:29:19;0.70;37.80
18577;DHT22;9418;52.694;13.294;2024-01-06T03:31:47;0.70;39.80
18577;DHT22;9418;52.694;13.294;2024-01-06T03:34:14;0.70;38.30
18577;DHT22;9418;52.694;13.294;2024-01-06T03:36:41;0.70;38.10
18577;DHT22;9418;52.694;13.294;2024-01-06T03:39:08;0.70;36.40
18577;DHT22;9418;52.694;13.294;2024-01-06T03:41:35;0.70;37.50
18577;DHT22;9418;52.694;13.294;2024-01-06T03:44:02;0.70;36.90
18577;DHT22;9418;52.694;13.294;2024-01-06T03:46:29;0.70;38.00
18577;DHT22;9418;52.694;13.294;2024-01-06T03:48:56;0.70;36.70
18577;DHT22;9418;52.694;13.294;2024-01-06T03:51:23;0.70;37.50
18577;DHT22;9418;52.694;13.294;2024-01-06T03:53:49;0.70;38.40
18577;DHT22;9418;52.694;13.294;2024-01-06T03:56:16;0.70;38.30
18577;DHT22;9418;52.694;13.294;2024-01-06T03:58:43;0.60;43.70
18577;DHT22;9418;52.694;13.294;2024-01-06T04:01:10;0.60;38.70
18577;DHT22;9418;52.694;13.294;2024-01-06T04:03:37;0.70;35.00
18577;DHT22;9418;52.694;13.294;2024-01-06T04:06:07;0.60;40.60
18577;DHT22;9418;52.694;13.294;2024-01-06T04:08:33;0.60;36.80
18577;DHT22;9418;52.694;13.294;2024-01-06T04:11:00;0.60;36.10
18577;DHT22;9418;52.694;13.294;2024-01-06T04:13:27;0.60;35.70
18577;DHT22;9418;52.694;13.294;2024-01-06T04:15:53;0.60;41.30
18577;DHT22;9418;52.694;13.294;2024-01-06T04:18:20;0.60;35.20
18577;DHT22;9418;52.694;13.294;2024-01-06T04:20:46;0.60;34.30
18577;DHT22;9418;52.694;13.294;2024-01-06T04:23:14;0.50;38.00
18577;DHT22;9418;52.694;13.294;2024-01-06T04:25:41;0.60;32.60
18577;DHT22;9418;52.694;13.294;2024-01-06T04:28:08;0.70;33.80
18577;DHT22;9418;52.694;13.294;2024-01-06T04:30:34;0.60;38.60
18577;DHT22;9418;52.694;13.294;2024-01-06T04:33:01;0.60;38.40
18577;DHT22;9418;52.694;13.294;2024-01-06T04:35:27;0.60;42.30
18577;DHT22;9418;52.694;13.294;2024-01-06T04:37:54;0.50;41.40
18577;DHT22;9418;52.694;13.294;2024-01-06T04:40:22;0.60;40.20
18577;DHT22;9418;52.694;13.294;2024-01-06T04:42:48;0.60;36.90
18577;DHT22;9418;52.694;13.294;2024-01-06T04:45:15;0.60;37.60
18577;DHT22;9418;52.694;13.294;2024-01-06T04:47:44;0.60;34.40
18577;DHT22;9418;52.694;13.294;2024-01-06T04:50:11;0.50;37.70
18577;DHT22;9418;52.694;13.294;2024-01-06T04:52:38;0.50;34.30
18577;DHT22;9418;52.694;13.294;2024-01-06T04:55:04;0.50;33.20
18577;DHT22;9418;52.694;13.294;2024-01-06T04:57:32;0.50;34.50
18577;DHT22;9418;52.694;13.294;2024-01-06T04:59:59;0.50;34.70
18577;DHT22;9418;52.694;13.294;2024-01-06T05:02:26;0.60;29.70
18577;DHT22;9418;52.694;13.294;2024-01-06T05:04:52;0.60;33.40
18577;DHT22;9418;52.694;13.294;2024-01-06T05:07:19;0.40;42.00
18577;DHT22;9418;52.694;13.294;2024-01-06T05:09:45;0.40;30.40
18577;DHT22;9418;52.694;13.294;2024-01-06T05:12:12;0.50;29.10
18577;DHT22;9418;52.694;13.294;2024-01-06T05:14:40;0.40;35.50
18577;DHT22;9418;52.694;13.294;2024-01-06T05:17:07;0.40;27.50
18577;DHT22;9418;52.694;13.294;2024-01-06T05:19:34;0.50;27.60
18577;DHT22;9418;52.694;13.294;2024-01-06T05:22:01;0.50;27.00
18577;DHT22;9418;52.694;13.294;2024-01-06T05:24:28;0.60;27.20
18577;DHT22;9418;52.694;13.294;2024-01-06T05:26:55;0.50;29.90
18577;DHT22;9418;52.694;13.294;2024-01-06T05:29:21;0.50;27.10
18577;DHT22;9418;52.694;13.294;2024-01-06T05:31:50;0.60;27.20
18577;DHT22;9418;52.694;13.294;2024-01-06T05:34:17;0.50;27.10
18577;DHT22;9418;52.694;13.294;2024-01-06T05:36:43;0.50;29.40
18577;DHT22;9418;52.694;13.294;2024-01-06T05:39:10;0.50;30.70
18577;DHT22;9418;52.694;13.294;2024-01-06T05:41:37;0.50;28.90
18577;DHT22;9418;52.694;13.294;2024-01-06T05:44:04;0.50;28.30
18577;DHT22;9418;52.694;13.294;2024-01-06T05:46:31;0.40;31.00
18577;DHT22;9418;52.694;13.294;2024-01-06T05:48:59;0.40;26.30
18577;DHT22;9418;52.694;13.294;2024-01-06T05:51:26;0.40;27.60
18577;DHT22;9418;52.694;13.294;2024-01-06T05:53:52;0.50;24.60
18577;DHT22;9418;52.694;13.294;2024-01-06T05:56:23;0.50;23.30
18577;DHT22;9418;52.694;13.294;2024-01-06T05:58:51;0.50;23.30
18577;DHT22;9418;52.694;13.294;2024-01-06T06:01:18;0.50;25.10
18577;DHT22;9418;52.694;13.294;2024-01-06T06:03:44;0.50;24.70
18577;DHT22;9418;52.694;13.294;2024-01-06T06:06:12;0.60;24.40
18577;DHT22;9418;52.694;13.294;2024-01-06T06:08:40;0.50;25.80
18577;DHT22;9418;52.694;13.294;2024-01-06T06:11:06;0.50;26.60
18577;DHT22;9418;52.694;13.294;2024-01-06T06:13:36;0.50;27.00
18577;DHT22;9418;52.694;13.294;2024-01-06T06:16:03;0.50;29.00
18577;DHT22;9418;52.694;13.294;2024-01-06T06:18:30;0.30;42.20
18577;DHT22;9418;52.694;13.294;2024-01-06T06:20:58;0.40;36.50
18577;DHT22;9418;52.694;13.294;2024-01-06T06:23:26;0.40;29.80
18577;DHT22;9418;52.694;13.294;2024-01-06T06:25:53;0.40;30.90
18577;DHT22;9418;52.694;13.294;2024-01-06T06:28:19;0.40;31.70
18577;DHT22;9418;52.694;13.294;2024-01-06T06:30:46;0.40;33.80
18577;DHT22;9418;52.694;13.294;2024-01-06T06:33:12;0.30;37.40
18577;DHT22;9418;52.694;13.294;2024-01-06T06:35:39;0.30;38.40
18577;DHT22;9418;52.694;13.294;2024-01-06T06:38:06;0.40;34.80
18577;DHT22;9418;52.694;13.294;2024-01-06T06:40:34;0.40;34.10
18577;DHT22;9418;52.694;13.294;2024-01-06T06:43:00;0.40;35.20
18577;DHT22;9418;52.694;13.294;2024-01-06T06:45:27;0.40;34.80
18577;DHT22;9418;52.694;13.294;2024-01-06T06:47:53;0.40;38.00
18577;DHT22;9418;52.694;13.294;2024-01-06T06:50:20;0.40;37.00
18577;DHT22;9418;52.694;13.294;2024-01-06T06:52:47;0.40;39.40
18577;DHT22;9418;52.694;13.294;2024-01-06T06:55:13;0.30;38.40
18577;DHT22;9418;52.694;13.294;2024-01-06T06:57:41;0.30;41.10
18577;DHT22;9418;52.694;13.294;2024-01-06T07:00:08;0.40;40.00
18577;DHT22;9418;52.694;13.294;2024-01-06T07:02:35;0.30;43.90
18577;DHT22;9418;52.694;13.294;2024-01-06T07:05:02;0.30;48.40
18577;DHT22;9418;52.694;13.294;2024-01-06T07:07:30;0.30;43.80
18577;DHT22;9418;52.694;13.294;2024-01-06T07:09:56;0.30;54.80
18577;DHT22;9418;52.694;13.294;2024-01-06T07:12:23;0.30;47.00
18577;DHT22;9418;52.694;13.294;2024-01-06T07:14:51;0.20;48.50
18577;DHT22;9418;52.694;13.294;2024-01-06T07:17:17;0.30;46.10
18577;DHT22;9418;52.694;13.294;2024-01-06T07:19:44;0.30;45.90
18577;DHT22;9418;52.694;13.294;2024-01-06T07:22:10;0.30;45.80
18577;DHT22;9418;52.694;13.294;2024-01-06T07:24:37;0.20;47.00
18577;DHT22;9418;52.694;13.294;2024-01-06T07:27:04;0.30;42.70
18577;DHT22;9418;52.694;13.294;2024-01-06T07:29:30;0.30;43.40
18577;DHT22;9418;52.694;13.294;2024-01-06T07:31:58;0.30;47.90
18577;DHT22;9418;52.694;13.294;2024-01-06T07:34:25;0.30;49.00
18577;DHT22;9418;52.694;13.294;2024-01-06T07:36:51;0.30;54.80
18577;DHT22;9418;52.694;13.294;2024-01-06T07:39:18;0.10;66.80
18577;DHT22;9418;52.694;13.294;2024-01-06T07:41:44;0.20;54.00
18577;DHT22;9418;52.694;13.294;2024-01-06T07:44:11;0.20;55.10
18577;DHT22;9418;52.694;13.294;2024-01-06T07:46:38;0.20;58.90
18577;DHT22;9418;52.694;13.294;2024-01-06T07:49:06;0.20;56.80
18577;DHT22;9418;52.694;13.294;2024-01-06T07:51:33;0.20;55.60
18577;DHT22;9418;52.694;13.294;2024-01-06T07:54:00;0.20;54.40
18577;DHT22;9418;52.694;13.294;2024-01-06T07:56:27;0.20;58.90
18577;DHT22;9418;52.694;13.294;2024-01-06T07:58:54;0.10;70.60
18577;DHT22;9418;52.694;13.294;2024-01-06T08:01:20;0.10;65.60
18577;DHT22;9418;52.694;13.294;2024-01-06T08:03:47;0.10;60.50
18577;DHT22;9418;52.694;13.294;2024-01-06T08:06:15;0.10;64.20
18577;DHT22;9418;52.694;13.294;2024-01-06T08:08:41;0.20;59.00
18577;DHT22;9418;52.694;13.294;2024-01-06T08:11:08;0.20;62.20
18577;DHT22;9418;52.694;13.294;2024-01-06T08:13:34;0.20;59.10
18577;DHT22;9418;52.694;13.294;2024-01-06T08:16:01;0.10;73.30
18577;DHT22;9418;52.694;13.294;2024-01-06T08:18:28;0.10;68.60
18577;DHT22;9418;52.694;13.294;2024-01-06T08:20:54;0.00;68.80
18577;DHT22;9418;52.694;13.294;2024-01-06T08:23:22;0.00;55.50
18577;DHT22;9418;52.694;13.294;2024-01-06T08:25:49;0.10;56.40
18577;DHT22;9418;52.694;13.294;2024-01-06T08:28:15;0.20;59.30
18577;DHT22;9418;52.694;13.294;2024-01-06T08:30:44;0.10;65.20
18577;DHT22;9418;52.694;13.294;2024-01-06T08:33:10;0.20;60.20
18577;DHT22;9418;52.694;13.294;2024-01-06T08:35:37;0.20;61.20
18577;DHT22;9418;52.694;13.294;2024-01-06T08:38:05;0.20;68.70
18577;DHT22;9418;52.694;13.294;2024-01-06T08:40:33;0.10;67.80
18577;DHT22;9418;52.694;13.294;2024-01-06T08:43:00;0.00;72.70
18577;DHT22;9418;52.694;13.294;2024-01-06T08:45:27;0.10;68.00
18577;DHT22;9418;52.694;13.294;2024-01-06T08:47:54;0.10;72.10
18577;DHT22;9418;52.694;13.294;2024-01-06T08:50:20;0.20;66.80
18577;DHT22;9418;52.694;13.294;2024-01-06T08:52:47;0.20;73.30
18577;DHT22;9418;52.694;13.294;2024-01-06T08:55:14;0.10;77.50
18577;DHT22;9418;52.694;13.294;2024-01-06T08:57:43;0.00;82.70
18577;DHT22;9418;52.694;13.294;2024-01-06T09:00:10;-0.10;79.80
18577;DHT22;9418;52.694;13.294;2024-01-06T09:02:37;-0.10;82.20
18577;DHT22;9418;52.694;13.294;2024-01-06T09:05:04;-0.10;74.50
18577;DHT22;9418;52.694;13.294;2024-01-06T09:07:30;0.00;68.30
18577;DHT22;9418;52.694;13.294;2024-01-06T09:09:57;-0.10;75.20
18577;DHT22;9418;52.694;13.294;2024-01-06T09:12:24;-0.10;72.70
18577;DHT22;9418;52.694;13.294;2024-01-06T09:14:52;0.00;67.90
18577;DHT22;9418;52.694;13.294;2024-01-06T09:17:19;0.10;66.10
18577;DHT22;9418;52.694;13.294;2024-01-06T09:19:45;0.10;75.90
18577;DHT22;9418;52.694;13.294;2024-01-06T09:22:13;0.10;77.40
18577;DHT22;9418;52.694;13.294;2024-01-06T09:24:40;0.00;89.80
18577;DHT22;9418;52.694;13.294;2024-01-06T09:27:07;0.00;85.40
18577;DHT22;9418;52.694;13.294;2024-01-06T09:29:33;0.00;78.30
18577;DHT22;9418;52.694;13.294;2024-01-06T09:32:01;0.10;75.60
18577;DHT22;9418;52.694;13.294;2024-01-06T09:34:28;0.10;87.60
18577;DHT22;9418;52.694;13.294;2024-01-06T09:36:54;0.10;81.70
18577;DHT22;9418;52.694;13.294;2024-01-06T09:39:21;0.10;85.10
18577;DHT22;9418;52.694;13.294;2024-01-06T09:41:47;0.10;86.50
18577;DHT22;9418;52.694;13.294;2024-01-06T09:44:14;0.00;88.60
18577;DHT22;9418;52.694;13.294;2024-01-06T09:46:42;0.00;80.90
18577;DHT22;9418;52.694;13.294;2024-01-06T09:49:10;0.00;80.00
18577;DHT22;9418;52.694;13.294;2024-01-06T09:51:39;0.10;78.50
18577;DHT22;9418;52.694;13.294;2024-01-06T09:54:10;0.10;80.90
18577;DHT22;9418;52.694;13.294;2024-01-06T09:56:39;0.10;81.40
18577;DHT22;9418;52.694;13.294;2024-01-06T09:59:06;0.10;84.70
18577;DHT22;9418;52.694;13.294;2024-01-06T10:01:32;0.10;83.00
18577;DHT22;9418;52.694;13.294;2024-01-06T10:03:59;0.10;77.70
18577;DHT22;9418;52.694;13.294;2024-01-06T10:06:27;0.10;79.80
18577;DHT22;9418;52.694;13.294;2024-01-06T10:08:53;0.20;89.10
18577;DHT22;9418;52.694;13.294;2024-01-06T10:11:22;0.00;99.90
18577;DHT22;9418;52.694;13.294;2024-01-06T10:13:49;0.10;90.00
18577;DHT22;9418;52.694;13.294;2024-01-06T10:16:16;0.00;95.10
18577;DHT22;9418;52.694;13.294;2024-01-06T10:18:43;0.10;90.20
18577;DHT22;9418;52.694;13.294;2024-01-06T10:21:10;0.10;85.60
18577;DHT22;9418;52.694;13.294;2024-01-06T10:23:38;0.10;86.00
18577;DHT22;9418;52.694;13.294;2024-01-06T10:26:05;0.20;84.80
18577;DHT22;9418;52.694;13.294;2024-01-06T10:28:31;0.20;89.10
18577;DHT22;9418;52.694;13.294;2024-01-06T10:30:58;0.20;90.00
18577;DHT22;9418;52.694;13.294;2024-01-06T10:33:25;0.10;89.20
18577;DHT22;9418;52.694;13.294;2024-01-06T10:35:53;0.10;92.20
18577;DHT22;9418;52.694;13.294;2024-01-06T10:38:20;0.20;86.00
18577;DHT22;9418;52.694;13.294;2024-01-06T10:40:58;-0.10;99.90
18577;DHT22;9418;52.694;13.294;2024-01-06T10:43:25;0.00;96.30
18577;DHT22;9418;52.694;13.294;2024-01-06T10:45:56;0.10;93.60
18577;DHT22;9418;52.694;13.294;2024-01-06T10:48:24;0.10;91.40
18577;DHT22;9418;52.694;13.294;2024-01-06T10:50:52;0.10;85.70
18577;DHT22;9418;52.694;13.294;2024-01-06T10:53:20;0.10;91.90
18577;DHT22;9418;52.694;13.294;2024-01-06T10:55:49;0.10;92.20
18577;DHT22;9418;52.694;13.294;2024-01-06T10:58:18;0.20;89.90
18577;DHT22;9418;52.694;13.294;2024-01-06T11:00:45;0.10;94.40
18577;DHT22;9418;52.694;13.294;2024-01-06T11:03:13;0.20;91.40
18577;DHT22;9418;52.694;13.294;2024-01-06T11:05:40;0.10;99.90
18577;DHT22;9418;52.694;13.294;2024-01-06T11:08:07;0.10;98.90
18577;DHT22;9418;52.694;13.294;2024-01-06T11:10:36;0.10;99.00
18577;DHT22;9418;52.694;13.294;2024-01-06T11:13:08;0.10;97.30
18577;DHT22;9418;52.694;13.294;2024-01-06T11:15:47;0.00;98.30
18577;DHT22;9418;52.694;13.294;2024-01-06T11:18:31;0.00;99.00
18577;DHT22;9418;52.694;13.294;2024-01-06T11:21:19;0.10;95.40
18577;DHT22;9418;52.694;13.294;2024-01-06T11:24:14;0.00;99.90
18577;DHT22;9418;52.694;13.294;2024-01-06T11:26:43;0.00;99.90
18577;DHT22;9418;52.694;13.294;2024-01-06T11:29:10;0.00;99.90
18577;DHT22;9418;52.694;13.294;2024-01-06T11:31:39;-0.20;99.90
18577;DHT22;9418;52.694;13.294;2024-01-06T11:34:16;0.00;99.90
18577;DHT22;9418;52.694;13.294;2024-01-06T11:36:44;0.00;99.90
18577;DHT22;9418;52.694;13.294;2024-01-06T11:39:33;0.00;99.90
18577;DHT22;9418;52.694;13.294;2024-01-06T11:42:00;0.00;99.90
18577;DHT22;9418;52.694;13.294;2024-01-06T11:44:28;0.10;95.50
18577;DHT22;9418;52.694;13.294;2024-01-06T11:46:57;0.00;99.90
18577;DHT22;9418;52.694;13.294;2024-01-06T11:49:26;0.00;99.90
18577;DHT22;9418;52.694;13.294;2024-01-06T11:51:54;-0.10;99.90
18577;DHT22;9418;52.694;13.294;2024-01-06T11:54:20;0.00;99.90
18577;DHT22;9418;52.694;13.294;2024-01-06T11:56:48;0.10;99.90
18577;DHT22;9418;52.694;13.294;2024-01-06T11:59:15;0.10;99.90
18577;DHT22;9418;52.694;13.294;2024-01-06T12:01:41;0.10;99.90
18577;DHT22;9418;52.694;13.294;2024-01-06T12:04:14;0.10;99.90
18577;DHT22;9418;52.694;13.294;2024-01-06T12:06:41;0.10;99.90
18577;DHT22;9418;52.694;13.294;2024-01-06T12:09:09;0.10;99.90
18577;DHT22;9418;52.694;13.294;2024-01-06T12:11:39;0.10;99.90
18577;DHT22;9418;52.694;13.294;2024-01-06T12:14:06;0.00;99.90
18577;DHT22;9418;52.694;13.294;2024-01-06T12:16:33;0.00;99.90
18577;DHT22;9418;52.694;13.294;2024-01-06T12:19:00;0.00;99.90
18577;DHT22;9418;52.694;13.294;2024-01-06T12:21:30;0.00;99.90
18577;DHT22;9418;52.694;13.294;2024-01-06T12:24:16;0.00;99.90
18577;DHT22;9418;52.694;13.294;2024-01-06T12:26:45;0.00;99.90
18577;DHT22;9418;52.694;13.294;2024-01-06T12:29:12;0.00;99.90
18577;DHT22;9418;52.694;13.294;2024-01-06T12:31:39;-0.10;99.90
18577;DHT22;9418;52.694;13.294;2024-01-06T12:34:06;0.00;99.90
18577;DHT22;9418;52.694;13.294;2024-01-06T12:36:35;0.10;99.90
18577;DHT22;9418;52.694;13.294;2024-01-06T12:39:03;0.10;99.90
18577;DHT22;9418;52.694;13.294;2024-01-06T12:41:29;0.10;99.90
18577;DHT22;9418;52.694;13.294;2024-01-06T12:43:58;0.10;99.90
18577;DHT22;9418;52.694;13.294;2024-01-06T12:46:25;0.10;99.90
18577;DHT22;9418;52.694;13.294;2024-01-06T12:48:52;0.10;99.90
18577;DHT22;9418;52.694;13.294;2024-01-06T12:51:19;0.20;99.90
18577;DHT22;9418;52.694;13.294;2024-01-06T12:53:47;0.00;99.90
18577;DHT22;9418;52.694;13.294;2024-01-06T12:56:14;0.00;99.90
18577;DHT22;9418;52.694;13.294;2024-01-06T12:58:41;0.00;99.90
18577;DHT22;9418;52.694;13.294;2024-01-06T13:01:07;0.00;99.90
18577;DHT22;9418;52.694;13.294;2024-01-06T13:03:34;0.10;99.90
18577;DHT22;9418;52.694;13.294;2024-01-06T13:06:01;0.00;99.90
18577;DHT22;9418;52.694;13.294;2024-01-06T13:08:28;0.00;99.90
18577;DHT22;9418;52.694;13.294;2024-01-06T13:10:56;0.00;99.90
18577;DHT22;9418;52.694;13.294;2024-01-06T13:13:22;0.00;99.90
18577;DHT22;9418;52.694;13.294;2024-01-06T13:15:49;0.00;99.90
18577;DHT22;9418;52.694;13.294;2024-01-06T13:18:15;0.00;99.90
18577;DHT22;9418;52.694;13.294;2024-01-06T13:20:43;0.00;99.90
18577;DHT22;9418;52.694;13.294;2024-01-06T13:23:10;0.00;99.90
18577;DHT22;9418;52.694;13.294;2024-01-06T13:25:37;0.10;99.90
18577;DHT22;9418;52.694;13.294;2024-01-06T13:28:06;0.00;99.90
18577;DHT22;9418;52.694;13.294;2024-01-06T13:30:33;0.00;99.90
18577;DHT22;9418;52.694;13.294;2024-01-06T13:33:00;0.00;99.90
18577;DHT22;9418;52.694;13.294;2024-01-06T13:35:26;0.00;99.90
18577;DHT22;9418;52.694;13.294;2024-01-06T13:37:54;0.10;99.90
18577;DHT22;9418;52.694;13.294;2024-01-06T13:40:21;0.00;99.90
18577;DHT22;9418;52.694;13.294;2024-01-06T13:42:48;0.00;99.90
18577;DHT22;9418;52.694;13.294;2024-01-06T13:45:17;-0.10;99.90
18577;DHT22;9418;52.694;13.294;2024-01-06T13:47:44;-0.10;99.90
18577;DHT22;9418;52.694;13.294;2024-01-06T13:50:12;-0.10;99.90
18577;DHT22;9418;52.694;13.294;2024-01-06T13:52:39;-0.10;99.90
18577;DHT22;9418;52.694;13.294;2024-01-06T13:55:06;0.00;99.90
18577;DHT22;9418;52.694;13.294;2024-01-06T13:57:33;0.00;99.90
18577;DHT22;9418;52.694;13.294;2024-01-06T14:00:00;-0.10;99.90
18577;DHT22;9418;52.694;13.294;2024-01-06T14:02:31;0.00;99.90
18577;DHT22;9418;52.694;13.294;2024-01-06T14:04:57;-0.10;99.90
18577;DHT22;9418;52.694;13.294;2024-01-06T14:07:24;0.00;99.90
18577;DHT22;9418;52.694;13.294;2024-01-06T14:09:51;-0.10;99.90
18577;DHT22;9418;52.694;13.294;2024-01-06T14:12:18;-0.30;99.90
18577;DHT22;9418;52.694;13.294;2024-01-06T14:14:45;-0.20;99.90
18577;DHT22;9418;52.694;13.294;2024-01-06T14:17:12;-0.10;99.90
18577;DHT22;9418;52.694;13.294;2024-01-06T14:19:39;-0.10;99.90
18577;DHT22;9418;52.694;13.294;2024-01-06T14:22:07;-0.10;99.90
18577;DHT22;9418;52.694;13.294;2024-01-06T14:24:34;-0.10;99.90
18577;DHT22;9418;52.694;13.294;2024-01-06T14:27:02;-0.10;99.90
18577;DHT22;9418;52.694;13.294;2024-01-06T14:29:29;-0.10;99.90
18577;DHT22;9418;52.694;13.294;2024-01-06T14:31:55;-0.20;99.90
18577;DHT22;9418;52.694;13.294;2024-01-06T14:34:22;-0.10;99.90
18577;DHT22;9418;52.694;13.294;2024-01-06T14:36:51;-0.10;99.90
18577;DHT22;9418;52.694;13.294;2024-01-06T14:39:18;-0.20;99.90
18577;DHT22;9418;52.694;13.294;2024-01-06T14:41:47;-0.20;99.90
18577;DHT22;9418;52.694;13.294;2024-01-06T14:44:13;-0.10;99.90
18577;DHT22;9418;52.694;13.294;2024-01-06T14:46:40;0.00;99.90
18577;DHT22;9418;52.694;13.294;2024-01-06T14:49:07;-0.10;99.90
18577;DHT22;9418;52.694;13.294;2024-01-06T14:51:33;-0.20;99.90
18577;DHT22;9418;52.694;13.294;2024-01-06T14:54:01;-0.20;99.90
18577;DHT22;9418;52.694;13.294;2024-01-06T14:56:28;-0.20;99.90
18577;DHT22;9418;52.694;13.294;2024-01-06T14:58:55;-0.20;99.90
18577;DHT22;9418;52.694;13.294;2024-01-06T15:01:22;-0.20;99.90
18577;DHT22;9418;52.694;13.294;2024-01-06T15:03:48;-0.30;99.90
18577;DHT22;9418;52.694;13.294;2024-01-06T15:06:15;-0.30;99.90
18577;DHT22;9418;52.694;13.294;2024-01-06T15:08:42;-0.40;99.90
18577;DHT22;9418;52.694;13.294;2024-01-06T15:11:10;-0.30;99.90
18577;DHT22;9418;52.694;13.294;2024-01-06T15:13:37;-0.30;99.90
18577;DHT22;9418;52.694;13.294;2024-01-06T15:16:05;-0.20;99.90
18577;DHT22;9418;52.694;13.294;2024-01-06T15:18:31;-0.30;99.90
18577;DHT22;9418;52.694;13.294;2024-01-06T15:20:58;-0.30;99.90
18577;DHT22;9418;52.694;13.294;2024-01-06T15:23:25;-0.30;99.90
18577;DHT22;9418;52.694;13.294;2024-01-06T15:25:50;-0.30;99.90
18577;DHT22;9418;52.694;13.294;2024-01-06T15:28:18;-0.30;99.90
18577;DHT22;9418;52.694;13.294;2024-01-06T15:30:46;-0.20;99.90
18577;DHT22;9418;52.694;13.294;2024-01-06T15:33:12;-0.30;99.90
18577;DHT22;9418;52.694;13.294;2024-01-06T15:35:40;-0.30;99.90
18577;DHT22;9418;52.694;13.294;2024-01-06T15:38:06;-0.30;99.90
18577;DHT22;9418;52.694;13.294;2024-01-06T15:40:33;-0.40;99.90
18577;DHT22;9418;52.694;13.294;2024-01-06T15:43:00;-0.30;99.90
18577;DHT22;9418;52.694;13.294;2024-01-06T15:45:28;-0.30;99.90